sensor_id;sensor_type;location;lat;lon;timestamp;temperature;humidity
73509;SHT30;61750;55.036;73.312;2022-07-23T01:56:23;15.86;70.29
73509;SHT30;61750;55.036;73.312;2022-07-23T01:58:54;16.05;69.65
73509;SHT30;61750;55.036;73.312;2022-07-23T02:01:32;16.32;68.88
73509;SHT30;61750;55.036;73.312;2022-07-23T02:04:21;16.58;69.94
73509;SHT30;61750;55.036;73.312;2022-07-23T02:06:48;16.77;69.07
73509;SHT30;61750;55.036;73.312;2022-07-23T02:09:19;17.00;68.78
73509;SHT30;61750;55.036;73.312;2022-07-23T02:11:49;17.10;68.22
73509;SHT30;61750;55.036;73.312;2022-07-23T02:14:19;17.19;65.61
73509;SHT30;61750;55.036;73.312;2022-07-23T02:16:46;17.26;65.61
73509;SHT30;61750;55.036;73.312;2022-07-23T02:19:24;17.41;67.25
73509;SHT30;61750;55.036;73.312;2022-07-23T02:21:55;17.46;64.96
73509;SHT30;61750;55.036;73.312;2022-07-23T02:24:25;17.54;64.47
73509;SHT30;61750;55.036;73.312;2022-07-23T02:26:52;17.66;65.19
73509;SHT30;61750;55.036;73.312;2022-07-23T02:29:23;17.74;63.55
73509;SHT30;61750;55.036;73.312;2022-07-23T02:31:49;17.82;63.73
73509;SHT30;61750;55.036;73.312;2022-07-23T02:34:15;17.82;63.11
73509;SHT30;61750;55.036;73.312;2022-07-23T02:36:47;17.87;62.92
73509;SHT30;61750;55.036;73.312;2022-07-23T02:39:19;17.91;63.10
73509;SHT30;61750;55.036;73.312;2022-07-23T02:41:49;17.92;62.42
73509;SHT30;61750;55.036;73.312;2022-07-23T02:44:19;18.00;62.67
73509;SHT30;61750;55.036;73.312;2022-07-23T02:46:49;18.06;61.92
73509;SHT30;61750;55.036;73.312;2022-07-23T02:49:19;18.21;62.44
73509;SHT30;61750;55.036;73.312;2022-07-23T02:51:48;18.41;62.07
73509;SHT30;61750;55.036;73.312;2022-07-23T02:54:19;18.52;61.61
73509;SHT30;61750;55.036;73.312;2022-07-23T02:56:46;18.62;61.76
73509;SHT30;61750;55.036;73.312;2022-07-23T02:59:20;18.70;60.92
73509;SHT30;61750;55.036;73.312;2022-07-23T03:01:47;18.80;60.74
73509;SHT30;61750;55.036;73.312;2022-07-23T03:04:13;18.86;60.76
73509;SHT30;61750;55.036;73.312;2022-07-23T03:06:47;18.93;59.93
73509;SHT30;61750;55.036;73.312;2022-07-23T03:09:19;19.10;59.22
73509;SHT30;61750;55.036;73.312;2022-07-23T03:11:46;19.21;59.46
73509;SHT30;61750;55.036;73.312;2022-07-23T03:14:19;19.32;61.97
73509;SHT30;61750;55.036;73.312;2022-07-23T03:16:46;19.32;60.54
73509;SHT30;61750;55.036;73.312;2022-07-23T03:19:20;19.44;59.73
73509;SHT30;61750;55.036;73.312;2022-07-23T03:21:46;19.41;59.97
73509;SHT30;61750;55.036;73.312;2022-07-23T03:24:19;19.35;62.07
73509;SHT30;61750;55.036;73.312;2022-07-23T03:26:46;19.38;60.45
73509;SHT30;61750;55.036;73.312;2022-07-23T03:29:19;19.50;60.82
73509;SHT30;61750;55.036;73.312;2022-07-23T03:31:46;19.62;61.40
73509;SHT30;61750;55.036;73.312;2022-07-23T03:34:12;19.71;59.28
73509;SHT30;61750;55.036;73.312;2022-07-23T03:36:38;19.89;59.62
73509;SHT30;61750;55.036;73.312;2022-07-23T03:39:19;20.06;58.12
73509;SHT30;61750;55.036;73.312;2022-07-23T03:41:46;20.23;57.81
73509;SHT30;61750;55.036;73.312;2022-07-23T03:44:20;20.45;60.49
73509;SHT30;61750;55.036;73.312;2022-07-23T03:46:46;20.69;58.54
73509;SHT30;61750;55.036;73.312;2022-07-23T03:49:20;20.70;56.89
73509;SHT30;61750;55.036;73.312;2022-07-23T03:51:46;20.75;57.52
73509;SHT30;61750;55.036;73.312;2022-07-23T03:54:19;20.72;57.07
73509;SHT30;61750;55.036;73.312;2022-07-23T03:56:46;20.90;57.01
73509;SHT30;61750;55.036;73.312;2022-07-23T03:59:19;20.90;56.64
73509;SHT30;61750;55.036;73.312;2022-07-23T04:01:46;21.07;55.58
73509;SHT30;61750;55.036;73.312;2022-07-23T04:04:21;21.07;56.50
73509;SHT30;61750;55.036;73.312;2022-07-23T04:06:58;21.11;57.76
73509;SHT30;61750;55.036;73.312;2022-07-23T04:09:25;21.07;59.02
73509;SHT30;61750;55.036;73.312;2022-07-23T04:11:57;21.37;57.92
73509;SHT30;61750;55.036;73.312;2022-07-23T04:14:23;21.51;58.89
73509;SHT30;61750;55.036;73.312;2022-07-23T04:16:49;21.75;55.52
73509;SHT30;61750;55.036;73.312;2022-07-23T04:19:19;21.99;55.92
73509;SHT30;61750;55.036;73.312;2022-07-23T04:22:01;21.98;54.89
73509;SHT30;61750;55.036;73.312;2022-07-23T04:24:39;22.15;53.30
73509;SHT30;61750;55.036;73.312;2022-07-23T04:27:10;22.23;53.96
73509;SHT30;61750;55.036;73.312;2022-07-23T04:29:47;22.23;53.72
73509;SHT30;61750;55.036;73.312;2022-07-23T04:32:14;22.22;54.22
73509;SHT30;61750;55.036;73.312;2022-07-23T04:34:40;22.12;53.96
73509;SHT30;61750;55.036;73.312;2022-07-23T04:37:07;22.05;54.41
73509;SHT30;61750;55.036;73.312;2022-07-23T04:39:35;21.96;54.83
73509;SHT30;61750;55.036;73.312;2022-07-23T04:42:01;21.96;54.15
73509;SHT30;61750;55.036;73.312;2022-07-23T04:44:40;22.02;55.32
73509;SHT30;61750;55.036;73.312;2022-07-23T04:47:06;22.13;54.62
73509;SHT30;61750;55.036;73.312;2022-07-23T04:49:32;22.26;57.08
73509;SHT30;61750;55.036;73.312;2022-07-23T04:51:59;22.47;57.35
73509;SHT30;61750;55.036;73.312;2022-07-23T04:54:25;22.37;54.51
73509;SHT30;61750;55.036;73.312;2022-07-23T04:57:02;22.28;53.51
73509;SHT30;61750;55.036;73.312;2022-07-23T04:59:38;22.09;54.27
73509;SHT30;61750;55.036;73.312;2022-07-23T05:02:04;22.05;54.61
73509;SHT30;61750;55.036;73.312;2022-07-23T05:04:41;21.94;54.55
73509;SHT30;61750;55.036;73.312;2022-07-23T05:07:07;21.96;55.04
73509;SHT30;61750;55.036;73.312;2022-07-23T05:09:39;22.20;53.48
73509;SHT30;61750;55.036;73.312;2022-07-23T05:12:07;22.30;54.98
73509;SHT30;61750;55.036;73.312;2022-07-23T05:14:34;22.46;54.64
73509;SHT30;61750;55.036;73.312;2022-07-23T05:17:01;22.70;53.98
73509;SHT30;61750;55.036;73.312;2022-07-23T05:19:28;22.57;53.08
73509;SHT30;61750;55.036;73.312;2022-07-23T05:21:54;22.66;53.91
73509;SHT30;61750;55.036;73.312;2022-07-23T05:24:22;23.17;52.06
73509;SHT30;61750;55.036;73.312;2022-07-23T05:26:54;23.20;52.61
73509;SHT30;61750;55.036;73.312;2022-07-23T05:29:31;23.25;51.40
73509;SHT30;61750;55.036;73.312;2022-07-23T05:31:57;23.48;51.99
73509;SHT30;61750;55.036;73.312;2022-07-23T05:34:24;23.32;51.95
73509;SHT30;61750;55.036;73.312;2022-07-23T05:36:50;23.37;51.25
73509;SHT30;61750;55.036;73.312;2022-07-23T05:39:19;23.35;51.20
73509;SHT30;61750;55.036;73.312;2022-07-23T05:41:46;23.03;51.62
73509;SHT30;61750;55.036;73.312;2022-07-23T05:44:19;23.15;51.85
73509;SHT30;61750;55.036;73.312;2022-07-23T05:46:46;23.34;50.81
73509;SHT30;61750;55.036;73.312;2022-07-23T05:49:19;23.55;51.07
73509;SHT30;61750;55.036;73.312;2022-07-23T05:52:07;23.61;50.23
73509;SHT30;61750;55.036;73.312;2022-07-23T05:54:52;23.45;50.83
73509;SHT30;61750;55.036;73.312;2022-07-23T05:57:18;23.44;49.97
73509;SHT30;61750;55.036;73.312;2022-07-23T05:59:44;23.42;50.61
73509;SHT30;61750;55.036;73.312;2022-07-23T06:02:10;23.64;50.23
73509;SHT30;61750;55.036;73.312;2022-07-23T06:04:37;24.10;49.75
73509;SHT30;61750;55.036;73.312;2022-07-23T06:07:25;24.32;47.78
73509;SHT30;61750;55.036;73.312;2022-07-23T06:09:54;24.16;48.48
73509;SHT30;61750;55.036;73.312;2022-07-23T06:12:20;24.09;49.19
73509;SHT30;61750;55.036;73.312;2022-07-23T06:14:46;24.25;48.79
73509;SHT30;61750;55.036;73.312;2022-07-23T06:17:16;24.20;47.56
73509;SHT30;61750;55.036;73.312;2022-07-23T06:19:42;23.95;48.10
73509;SHT30;61750;55.036;73.312;2022-07-23T06:22:09;24.12;48.23
73509;SHT30;61750;55.036;73.312;2022-07-23T06:24:35;24.61;48.29
73509;SHT30;61750;55.036;73.312;2022-07-23T06:27:03;24.67;47.28
73509;SHT30;61750;55.036;73.312;2022-07-23T06:29:29;24.37;48.51
73509;SHT30;61750;55.036;73.312;2022-07-23T06:31:55;24.59;47.88
73509;SHT30;61750;55.036;73.312;2022-07-23T06:34:26;24.77;47.73
73509;SHT30;61750;55.036;73.312;2022-07-23T06:37:00;25.00;47.12
73509;SHT30;61750;55.036;73.312;2022-07-23T06:39:36;25.15;46.51
73509;SHT30;61750;55.036;73.312;2022-07-23T06:42:03;24.95;46.13
73509;SHT30;61750;55.036;73.312;2022-07-23T06:44:38;24.97;45.48
73509;SHT30;61750;55.036;73.312;2022-07-23T06:47:06;25.22;45.04
73509;SHT30;61750;55.036;73.312;2022-07-23T06:49:33;25.24;43.93
73509;SHT30;61750;55.036;73.312;2022-07-23T06:51:59;25.06;44.10
73509;SHT30;61750;55.036;73.312;2022-07-23T06:54:25;24.97;43.38
73509;SHT30;61750;55.036;73.312;2022-07-23T06:56:51;24.69;45.01
73509;SHT30;61750;55.036;73.312;2022-07-23T06:59:19;25.01;45.15
73509;SHT30;61750;55.036;73.312;2022-07-23T07:01:46;25.08;43.64
73509;SHT30;61750;55.036;73.312;2022-07-23T07:04:12;25.39;44.23
73509;SHT30;61750;55.036;73.312;2022-07-23T07:06:38;25.65;42.61
73509;SHT30;61750;55.036;73.312;2022-07-23T07:09:19;25.74;42.13
73509;SHT30;61750;55.036;73.312;2022-07-23T07:11:46;25.62;41.54
73509;SHT30;61750;55.036;73.312;2022-07-23T07:14:20;25.79;43.17
73509;SHT30;61750;55.036;73.312;2022-07-23T07:16:46;25.79;42.92
73509;SHT30;61750;55.036;73.312;2022-07-23T07:19:19;25.99;44.09
73509;SHT30;61750;55.036;73.312;2022-07-23T07:21:46;25.78;42.77
73509;SHT30;61750;55.036;73.312;2022-07-23T07:24:19;25.78;43.27
73509;SHT30;61750;55.036;73.312;2022-07-23T07:26:46;25.97;43.74
73509;SHT30;61750;55.036;73.312;2022-07-23T07:29:19;26.19;43.82
73509;SHT30;61750;55.036;73.312;2022-07-23T07:31:46;25.76;44.23
73509;SHT30;61750;55.036;73.312;2022-07-23T07:34:12;25.82;43.68
73509;SHT30;61750;55.036;73.312;2022-07-23T07:36:43;25.88;43.90
73509;SHT30;61750;55.036;73.312;2022-07-23T07:39:19;25.97;43.94
73509;SHT30;61750;55.036;73.312;2022-07-23T07:41:46;25.92;44.06
73509;SHT30;61750;55.036;73.312;2022-07-23T07:44:19;25.86;44.35
73509;SHT30;61750;55.036;73.312;2022-07-23T07:46:46;25.48;44.91
73509;SHT30;61750;55.036;73.312;2022-07-23T07:49:19;25.06;45.58
73509;SHT30;61750;55.036;73.312;2022-07-23T07:51:46;24.69;46.14
73509;SHT30;61750;55.036;73.312;2022-07-23T07:54:19;24.53;47.16
73509;SHT30;61750;55.036;73.312;2022-07-23T07:56:46;24.41;48.56
73509;SHT30;61750;55.036;73.312;2022-07-23T07:59:19;24.20;48.26
73509;SHT30;61750;55.036;73.312;2022-07-23T08:01:46;24.30;47.97
73509;SHT30;61750;55.036;73.312;2022-07-23T08:04:12;24.41;48.19
73509;SHT30;61750;55.036;73.312;2022-07-23T08:06:38;24.67;47.65
73509;SHT30;61750;55.036;73.312;2022-07-23T08:09:19;24.87;48.26
73509;SHT30;61750;55.036;73.312;2022-07-23T08:11:46;25.64;48.10
73509;SHT30;61750;55.036;73.312;2022-07-23T08:14:19;26.36;46.04
73509;SHT30;61750;55.036;73.312;2022-07-23T08:16:46;26.88;44.41
73509;SHT30;61750;55.036;73.312;2022-07-23T08:19:19;26.49;43.64
73509;SHT30;61750;55.036;73.312;2022-07-23T08:21:56;26.05;45.57
73509;SHT30;61750;55.036;73.312;2022-07-23T08:24:22;25.57;44.98
73509;SHT30;61750;55.036;73.312;2022-07-23T08:26:48;24.92;44.40
73509;SHT30;61750;55.036;73.312;2022-07-23T08:29:19;24.60;45.71
73509;SHT30;61750;55.036;73.312;2022-07-23T08:31:46;24.71;45.46
73509;SHT30;61750;55.036;73.312;2022-07-23T08:34:22;25.31;45.12
73509;SHT30;61750;55.036;73.312;2022-07-23T08:36:48;25.18;46.98
73509;SHT30;61750;55.036;73.312;2022-07-23T08:39:19;25.00;45.25
73509;SHT30;61750;55.036;73.312;2022-07-23T08:41:46;24.90;45.28
73509;SHT30;61750;55.036;73.312;2022-07-23T08:44:19;24.91;44.97
73509;SHT30;61750;55.036;73.312;2022-07-23T08:46:46;25.07;44.94
73509;SHT30;61750;55.036;73.312;2022-07-23T08:49:19;26.03;44.73
73509;SHT30;61750;55.036;73.312;2022-07-23T08:51:55;26.54;41.95
73509;SHT30;61750;55.036;73.312;2022-07-23T08:54:22;27.04;40.52
73509;SHT30;61750;55.036;73.312;2022-07-23T08:56:48;27.79;44.35
73509;SHT30;61750;55.036;73.312;2022-07-23T08:59:19;28.47;38.59
73509;SHT30;61750;55.036;73.312;2022-07-23T09:01:51;29.24;36.94
73509;SHT30;61750;55.036;73.312;2022-07-23T09:04:17;29.79;35.61
73509;SHT30;61750;55.036;73.312;2022-07-23T09:06:53;30.41;35.87
73509;SHT30;61750;55.036;73.312;2022-07-23T09:09:20;30.80;35.35
73509;SHT30;61750;55.036;73.312;2022-07-23T09:11:47;30.63;34.49
73509;SHT30;61750;55.036;73.312;2022-07-23T09:14:35;29.72;34.64
73509;SHT30;61750;55.036;73.312;2022-07-23T09:17:11;28.50;36.54
73509;SHT30;61750;55.036;73.312;2022-07-23T09:19:38;27.41;37.18
73509;SHT30;61750;55.036;73.312;2022-07-23T09:22:26;26.41;40.07
73509;SHT30;61750;55.036;73.312;2022-07-23T09:25:14;25.17;43.54
73509;SHT30;61750;55.036;73.312;2022-07-23T09:27:56;24.10;47.65
73509;SHT30;61750;55.036;73.312;2022-07-23T09:30:29;23.57;56.07
73509;SHT30;61750;55.036;73.312;2022-07-23T09:33:11;23.48;54.83
73509;SHT30;61750;55.036;73.312;2022-07-23T09:35:55;23.27;53.61
73509;SHT30;61750;55.036;73.312;2022-07-23T09:38:27;23.50;53.55
73509;SHT30;61750;55.036;73.312;2022-07-23T09:41:10;24.09;50.49
73509;SHT30;61750;55.036;73.312;2022-07-23T09:43:40;24.19;49.65
73509;SHT30;61750;55.036;73.312;2022-07-23T09:46:21;24.53;45.87
73509;SHT30;61750;55.036;73.312;2022-07-23T09:49:21;25.10;44.56
73509;SHT30;61750;55.036;73.312;2022-07-23T09:51:50;26.09;45.10
73509;SHT30;61750;55.036;73.312;2022-07-23T09:54:20;27.27;40.15
73509;SHT30;61750;55.036;73.312;2022-07-23T09:56:48;28.05;39.04
73509;SHT30;61750;55.036;73.312;2022-07-23T09:59:22;28.59;39.40
73509;SHT30;61750;55.036;73.312;2022-07-23T10:01:49;28.91;37.56
73509;SHT30;61750;55.036;73.312;2022-07-23T10:04:16;29.14;37.01
73509;SHT30;61750;55.036;73.312;2022-07-23T10:07:08;29.86;37.87
73509;SHT30;61750;55.036;73.312;2022-07-23T10:10:03;30.33;34.97
73509;SHT30;61750;55.036;73.312;2022-07-23T10:12:55;29.79;35.45
73509;SHT30;61750;55.036;73.312;2022-07-23T10:15:41;29.31;36.35
73509;SHT30;61750;55.036;73.312;2022-07-23T10:18:10;29.07;36.83
73509;SHT30;61750;55.036;73.312;2022-07-23T10:20:38;28.73;37.48
73509;SHT30;61750;55.036;73.312;2022-07-23T10:25:51;30.20;35.00
73509;SHT30;61750;55.036;73.312;2022-07-23T10:31:29;28.56;38.61
73509;SHT30;61750;55.036;73.312;2022-07-23T10:34:25;28.09;37.00
73509;SHT30;61750;55.036;73.312;2022-07-23T10:36:59;28.17;36.77
73509;SHT30;61750;55.036;73.312;2022-07-23T10:39:34;27.30;36.96
73509;SHT30;61750;55.036;73.312;2022-07-23T10:42:18;26.61;39.35
73509;SHT30;61750;55.036;73.312;2022-07-23T10:44:46;26.93;37.30
73509;SHT30;61750;55.036;73.312;2022-07-23T10:47:25;28.13;37.47
73509;SHT30;61750;55.036;73.312;2022-07-23T10:58:04;28.19;36.04
73509;SHT30;61750;55.036;73.312;2022-07-23T11:00:32;26.95;38.51
73509;SHT30;61750;55.036;73.312;2022-07-23T11:03:00;26.46;39.67
73509;SHT30;61750;55.036;73.312;2022-07-23T11:05:44;25.68;40.03
73509;SHT30;61750;55.036;73.312;2022-07-23T11:08:14;24.69;41.85
73509;SHT30;61750;55.036;73.312;2022-07-23T11:10:46;23.48;44.53
73509;SHT30;61750;55.036;73.312;2022-07-23T11:24:20;21.51;50.31
73509;SHT30;61750;55.036;73.312;2022-07-23T11:26:53;21.52;50.09
73509;SHT30;61750;55.036;73.312;2022-07-23T11:31:59;21.99;49.30
73509;SHT30;61750;55.036;73.312;2022-07-23T11:34:42;22.96;45.77
73509;SHT30;61750;55.036;73.312;2022-07-23T11:37:11;24.39;41.92
73509;SHT30;61750;55.036;73.312;2022-07-23T11:39:38;25.11;40.10
73509;SHT30;61750;55.036;73.312;2022-07-23T11:42:06;25.97;38.20
73509;SHT30;61750;55.036;73.312;2022-07-23T11:44:39;26.76;36.44
73509;SHT30;61750;55.036;73.312;2022-07-23T11:47:09;27.66;35.77
73509;SHT30;61750;55.036;73.312;2022-07-23T11:49:37;28.36;33.98
73509;SHT30;61750;55.036;73.312;2022-07-23T11:52:12;28.12;34.01
73509;SHT30;61750;55.036;73.312;2022-07-23T11:55:00;28.87;34.92
73509;SHT30;61750;55.036;73.312;2022-07-23T11:57:36;29.18;33.37
73509;SHT30;61750;55.036;73.312;2022-07-23T12:00:12;29.38;32.32
73509;SHT30;61750;55.036;73.312;2022-07-23T12:02:43;30.24;33.80
73509;SHT30;61750;55.036;73.312;2022-07-23T12:05:14;31.32;30.77
73509;SHT30;61750;55.036;73.312;2022-07-23T12:07:45;31.29;29.65
73509;SHT30;61750;55.036;73.312;2022-07-23T12:12:52;30.95;31.17
73509;SHT30;61750;55.036;73.312;2022-07-23T12:15:30;31.69;30.29
73509;SHT30;61750;55.036;73.312;2022-07-23T12:18:00;32.27;28.65
73509;SHT30;61750;55.036;73.312;2022-07-23T12:20:32;32.05;29.95
73509;SHT30;61750;55.036;73.312;2022-07-23T12:23:01;32.49;27.24
73509;SHT30;61750;55.036;73.312;2022-07-23T12:25:33;32.64;27.60
73509;SHT30;61750;55.036;73.312;2022-07-23T12:28:01;31.99;27.70
73509;SHT30;61750;55.036;73.312;2022-07-23T12:30:43;32.23;28.18
73509;SHT30;61750;55.036;73.312;2022-07-23T12:33:12;32.06;28.26
73509;SHT30;61750;55.036;73.312;2022-07-23T12:35:40;31.42;28.95
73509;SHT30;61750;55.036;73.312;2022-07-23T12:38:09;31.43;29.32
73509;SHT30;61750;55.036;73.312;2022-07-23T12:43:18;32.23;29.27
73509;SHT30;61750;55.036;73.312;2022-07-23T12:46:10;32.03;29.27
73509;SHT30;61750;55.036;73.312;2022-07-23T12:48:53;31.94;29.86
73509;SHT30;61750;55.036;73.312;2022-07-23T12:51:25;32.00;29.32
73509;SHT30;61750;55.036;73.312;2022-07-23T12:54:27;29.96;32.26
73509;SHT30;61750;55.036;73.312;2022-07-23T12:56:53;28.86;33.67
73509;SHT30;61750;55.036;73.312;2022-07-23T12:59:30;29.38;33.57
73509;SHT30;61750;55.036;73.312;2022-07-23T13:01:57;27.96;34.72
73509;SHT30;61750;55.036;73.312;2022-07-23T13:04:26;26.70;36.80
73509;SHT30;61750;55.036;73.312;2022-07-23T13:06:57;26.12;38.04
73509;SHT30;61750;55.036;73.312;2022-07-23T13:09:30;26.64;37.71
73509;SHT30;61750;55.036;73.312;2022-07-23T13:11:57;28.47;34.91
73509;SHT30;61750;55.036;73.312;2022-07-23T13:14:24;27.86;35.83
73509;SHT30;61750;55.036;73.312;2022-07-23T13:16:52;29.21;34.34
73509;SHT30;61750;55.036;73.312;2022-07-23T13:19:19;29.15;34.64
73509;SHT30;61750;55.036;73.312;2022-07-23T13:21:48;27.66;35.76
73509;SHT30;61750;55.036;73.312;2022-07-23T13:24:20;26.91;37.72
73509;SHT30;61750;55.036;73.312;2022-07-23T13:26:46;25.86;37.89
73509;SHT30;61750;55.036;73.312;2022-07-23T13:29:19;24.94;39.74
73509;SHT30;61750;55.036;73.312;2022-07-23T13:31:46;24.40;40.76
73509;SHT30;61750;55.036;73.312;2022-07-23T13:34:14;23.95;41.25
73509;SHT30;61750;55.036;73.312;2022-07-23T13:36:40;23.74;41.52
73509;SHT30;61750;55.036;73.312;2022-07-23T13:39:19;23.61;41.81
73509;SHT30;61750;55.036;73.312;2022-07-23T13:41:45;23.42;42.55
73509;SHT30;61750;55.036;73.312;2022-07-23T13:44:19;23.25;42.17
73509;SHT30;61750;55.036;73.312;2022-07-23T13:46:46;23.40;42.42
73509;SHT30;61750;55.036;73.312;2022-07-23T13:49:22;23.55;41.36
73509;SHT30;61750;55.036;73.312;2022-07-23T13:51:58;25.79;37.59
73509;SHT30;61750;55.036;73.312;2022-07-23T13:54:25;27.12;35.15
73509;SHT30;61750;55.036;73.312;2022-07-23T13:56:51;27.96;34.13
73509;SHT30;61750;55.036;73.312;2022-07-23T13:59:19;28.78;31.59
73509;SHT30;61750;55.036;73.312;2022-07-23T14:01:56;28.50;31.69
73509;SHT30;61750;55.036;73.312;2022-07-23T14:04:23;27.99;31.63
73509;SHT30;61750;55.036;73.312;2022-07-23T14:06:49;27.51;32.12
73509;SHT30;61750;55.036;73.312;2022-07-23T14:09:19;26.33;34.15
73509;SHT30;61750;55.036;73.312;2022-07-23T14:11:46;25.78;36.10
73509;SHT30;61750;55.036;73.312;2022-07-23T14:14:19;25.44;36.16
73509;SHT30;61750;55.036;73.312;2022-07-23T14:16:55;25.00;37.91
73509;SHT30;61750;55.036;73.312;2022-07-23T14:19:23;24.55;40.01
73509;SHT30;61750;55.036;73.312;2022-07-23T14:21:58;24.01;41.79
73509;SHT30;61750;55.036;73.312;2022-07-23T14:24:30;23.59;43.71
73509;SHT30;61750;55.036;73.312;2022-07-23T14:27:03;23.18;44.06
73509;SHT30;61750;55.036;73.312;2022-07-23T14:29:38;22.83;45.16
73509;SHT30;61750;55.036;73.312;2022-07-23T14:32:10;22.61;45.45
73509;SHT30;61750;55.036;73.312;2022-07-23T14:34:41;22.40;46.68
73509;SHT30;61750;55.036;73.312;2022-07-23T14:37:07;22.17;46.92
73509;SHT30;61750;55.036;73.312;2022-07-23T14:39:42;21.92;48.47
73509;SHT30;61750;55.036;73.312;2022-07-23T14:42:09;21.62;49.52
73509;SHT30;61750;55.036;73.312;2022-07-23T14:44:36;21.38;50.48
73509;SHT30;61750;55.036;73.312;2022-07-23T14:47:03;21.18;51.01
73509;SHT30;61750;55.036;73.312;2022-07-23T14:49:33;20.97;51.46
73509;SHT30;61750;55.036;73.312;2022-07-23T14:51:59;20.77;51.89
73509;SHT30;61750;55.036;73.312;2022-07-23T14:54:26;20.55;53.04
73509;SHT30;61750;55.036;73.312;2022-07-23T14:57:02;20.42;53.33
73509;SHT30;61750;55.036;73.312;2022-07-23T14:59:29;20.26;53.37
73509;SHT30;61750;55.036;73.312;2022-07-23T15:01:57;20.06;53.92
73509;SHT30;61750;55.036;73.312;2022-07-23T15:04:24;19.98;54.98
73509;SHT30;61750;55.036;73.312;2022-07-23T15:06:50;19.94;54.99
73509;SHT30;61750;55.036;73.312;2022-07-23T15:09:19;19.89;55.22
73509;SHT30;61750;55.036;73.312;2022-07-23T15:11:45;19.91;55.29
73509;SHT30;61750;55.036;73.312;2022-07-23T15:14:22;19.92;54.98
73509;SHT30;61750;55.036;73.312;2022-07-23T15:16:48;19.94;55.55
73509;SHT30;61750;55.036;73.312;2022-07-23T15:19:19;19.91;54.51
73509;SHT30;61750;55.036;73.312;2022-07-23T15:21:45;19.95;54.71
73509;SHT30;61750;55.036;73.312;2022-07-23T15:24:19;19.88;56.29
73509;SHT30;61750;55.036;73.312;2022-07-23T15:26:45;19.81;56.04
73509;SHT30;61750;55.036;73.312;2022-07-23T15:29:19;19.65;56.34
73509;SHT30;61750;55.036;73.312;2022-07-23T15:31:45;19.50;56.88
73509;SHT30;61750;55.036;73.312;2022-07-23T15:34:12;19.37;57.31
73509;SHT30;61750;55.036;73.312;2022-07-23T15:36:38;19.26;58.04
73509;SHT30;61750;55.036;73.312;2022-07-23T15:39:19;19.21;57.13
73509;SHT30;61750;55.036;73.312;2022-07-23T15:41:46;19.20;57.59
73509;SHT30;61750;55.036;73.312;2022-07-23T15:44:19;19.13;57.85
73509;SHT30;61750;55.036;73.312;2022-07-23T15:46:45;19.06;57.57
73509;SHT30;61750;55.036;73.312;2022-07-23T15:49:19;19.03;58.23
73509;SHT30;61750;55.036;73.312;2022-07-23T15:51:46;19.00;58.68
73509;SHT30;61750;55.036;73.312;2022-07-23T15:54:22;18.95;58.05
73509;SHT30;61750;55.036;73.312;2022-07-23T15:56:48;18.92;58.07
73509;SHT30;61750;55.036;73.312;2022-07-23T15:59:19;18.85;58.26
73509;SHT30;61750;55.036;73.312;2022-07-23T16:01:45;18.85;58.79
73509;SHT30;61750;55.036;73.312;2022-07-23T16:04:16;18.70;59.08
73509;SHT30;61750;55.036;73.312;2022-07-23T16:06:43;18.66;59.28
73509;SHT30;61750;55.036;73.312;2022-07-23T16:09:19;18.65;59.27
73509;SHT30;61750;55.036;73.312;2022-07-23T16:11:46;18.62;58.26
73509;SHT30;61750;55.036;73.312;2022-07-23T16:14:21;18.56;58.54
73509;SHT30;61750;55.036;73.312;2022-07-23T16:16:47;18.48;59.46
73509;SHT30;61750;55.036;73.312;2022-07-23T16:19:19;18.32;60.01
73509;SHT30;61750;55.036;73.312;2022-07-23T16:21:45;18.22;60.07
73509;SHT30;61750;55.036;73.312;2022-07-23T16:24:19;18.15;60.04
73509;SHT30;61750;55.036;73.312;2022-07-23T16:26:49;18.11;59.85
73509;SHT30;61750;55.036;73.312;2022-07-23T16:29:25;18.05;59.82
73509;SHT30;61750;55.036;73.312;2022-07-23T16:32:01;18.04;60.27
73509;SHT30;61750;55.036;73.312;2022-07-23T16:34:27;17.97;60.32
73509;SHT30;61750;55.036;73.312;2022-07-23T16:36:54;17.92;60.36
73509;SHT30;61750;55.036;73.312;2022-07-23T16:39:20;17.90;60.66
73509;SHT30;61750;55.036;73.312;2022-07-23T16:41:46;17.85;60.52
73509;SHT30;61750;55.036;73.312;2022-07-23T16:44:19;17.77;60.63
73509;SHT30;61750;55.036;73.312;2022-07-23T16:46:45;17.70;60.76
73509;SHT30;61750;55.036;73.312;2022-07-23T16:49:19;17.61;60.96
73509;SHT30;61750;55.036;73.312;2022-07-23T16:51:45;17.53;61.56
73509;SHT30;61750;55.036;73.312;2022-07-23T16:54:19;17.41;61.84
73509;SHT30;61750;55.036;73.312;2022-07-23T16:56:46;17.34;62.02
73509;SHT30;61750;55.036;73.312;2022-07-23T16:59:19;17.22;62.70
73509;SHT30;61750;55.036;73.312;2022-07-23T17:01:45;17.17;62.69
73509;SHT30;61750;55.036;73.312;2022-07-23T17:04:12;17.12;63.15
73509;SHT30;61750;55.036;73.312;2022-07-23T17:06:42;17.06;63.25
73509;SHT30;61750;55.036;73.312;2022-07-23T17:09:19;17.03;63.49
73509;SHT30;61750;55.036;73.312;2022-07-23T17:11:50;16.99;63.69
73509;SHT30;61750;55.036;73.312;2022-07-23T17:14:19;17.00;63.80
73509;SHT30;61750;55.036;73.312;2022-07-23T17:16:46;17.00;63.96
73509;SHT30;61750;55.036;73.312;2022-07-23T17:19:19;16.99;63.81
73509;SHT30;61750;55.036;73.312;2022-07-23T17:21:46;17.00;63.63
73509;SHT30;61750;55.036;73.312;2022-07-23T17:24:19;16.97;63.41
73509;SHT30;61750;55.036;73.312;2022-07-23T17:26:46;17.02;63.52
73509;SHT30;61750;55.036;73.312;2022-07-23T17:29:19;16.96;63.46
73509;SHT30;61750;55.036;73.312;2022-07-23T17:31:50;16.93;63.19
73509;SHT30;61750;55.036;73.312;2022-07-23T17:34:17;16.90;63.39
73509;SHT30;61750;55.036;73.312;2022-07-23T17:36:43;16.83;63.49
73509;SHT30;61750;55.036;73.312;2022-07-23T17:39:19;16.82;63.32
73509;SHT30;61750;55.036;73.312;2022-07-23T17:41:45;16.85;63.39
73509;SHT30;61750;55.036;73.312;2022-07-23T17:44:19;16.86;63.36
73509;SHT30;61750;55.036;73.312;2022-07-23T17:46:49;16.87;63.08
73509;SHT30;61750;55.036;73.312;2022-07-23T17:49:19;16.90;63.14
73509;SHT30;61750;55.036;73.312;2022-07-23T17:51:46;16.89;62.96
73509;SHT30;61750;55.036;73.312;2022-07-23T17:54:19;16.86;62.64
73509;SHT30;61750;55.036;73.312;2022-07-23T17:56:46;16.86;62.99
73509;SHT30;61750;55.036;73.312;2022-07-23T17:59:19;16.83;62.89
73509;SHT30;61750;55.036;73.312;2022-07-23T18:01:45;16.80;62.58
73509;SHT30;61750;55.036;73.312;2022-07-23T18:04:12;16.77;62.42
73509;SHT30;61750;55.036;73.312;2022-07-23T18:06:42;16.73;62.66